sensor_id;sensor_type;location;lat;lon;timestamp;P1;durP1;ratioP1;P2;durP2;ratioP2
8893;SDS011;4483;48.622;9.230;2023-05-29T00:00:49;4.97;;;4.07;;
8893;SDS011;4483;48.622;9.230;2023-05-29T00:03:16;7.07;;;4.63;;
8893;SDS011;4483;48.622;9.230;2023-05-29T00:05:43;8.43;;;4.30;;
8893;SDS011;4483;48.622;9.230;2023-05-29T00:08:10;5.07;;;3.97;;
8893;SDS011;4483;48.622;9.230;2023-05-29T00:10:38;5.00;;;4.50;;
8893;SDS011;4483;48.622;9.230;2023-05-29T00:13:05;4.00;;;3.60;;
8893;SDS011;4483;48.622;9.230;2023-05-29T00:15:32;7.50;;;4.30;;
8893;SDS011;4483;48.622;9.230;2023-05-29T00:17:59;5.70;;;4.43;;
8893;SDS011;4483;48.622;9.230;2023-05-29T00:20:26;5.07;;;4.23;;
8893;SDS011;4483;48.622;9.230;2023-05-29T00:22:53;6.87;;;4.20;;
8893;SDS011;4483;48.622;9.230;2023-05-29T00:25:20;5.20;;;4.20;;
8893;SDS011;4483;48.622;9.230;2023-05-29T00:27:48;5.57;;;4.30;;
8893;SDS011;4483;48.622;9.230;2023-05-29T00:30:15;6.60;;;3.70;;
8893;SDS011;4483;48.622;9.230;2023-05-29T00:32:41;6.47;;;4.70;;
8893;SDS011;4483;48.622;9.230;2023-05-29T00:35:08;4.90;;;4.40;;
8893;SDS011;4483;48.622;9.230;2023-05-29T00:37:35;5.10;;;4.00;;
8893;SDS011;4483;48.622;9.230;2023-05-29T00:40:02;6.30;;;4.07;;
8893;SDS011;4483;48.622;9.230;2023-05-29T00:42:29;10.93;;;4.40;;
8893;SDS011;4483;48.622;9.230;2023-05-29T00:44:57;6.23;;;4.30;;
8893;SDS011;4483;48.622;9.230;2023-05-29T00:47:24;5.00;;;4.20;;
8893;SDS011;4483;48.622;9.230;2023-05-29T00:49:51;5.93;;;4.23;;
8893;SDS011;4483;48.622;9.230;2023-05-29T00:52:18;6.60;;;3.97;;
8893;SDS011;4483;48.622;9.230;2023-05-29T00:54:45;4.63;;;4.17;;
8893;SDS011;4483;48.622;9.230;2023-05-29T00:57:13;4.67;;;3.90;;
8893;SDS011;4483;48.622;9.230;2023-05-29T00:59:42;8.10;;;4.03;;
8893;SDS011;4483;48.622;9.230;2023-05-29T01:02:13;5.70;;;4.40;;
8893;SDS011;4483;48.622;9.230;2023-05-29T01:04:41;5.87;;;4.13;;
8893;SDS011;4483;48.622;9.230;2023-05-29T01:07:08;6.87;;;4.50;;
8893;SDS011;4483;48.622;9.230;2023-05-29T01:09:35;5.40;;;4.23;;
8893;SDS011;4483;48.622;9.230;2023-05-29T01:12:03;6.23;;;3.93;;
8893;SDS011;4483;48.622;9.230;2023-05-29T01:14:42;4.63;;;4.10;;
8893;SDS011;4483;48.622;9.230;2023-05-29T01:17:23;9.00;;;4.20;;
8893;SDS011;4483;48.622;9.230;2023-05-29T01:20:08;5.97;;;4.37;;
8893;SDS011;4483;48.622;9.230;2023-05-29T01:23:02;5.10;;;3.97;;
8893;SDS011;4483;48.622;9.230;2023-05-29T01:25:46;6.80;;;4.20;;
8893;SDS011;4483;48.622;9.230;2023-05-29T01:28:25;7.63;;;4.40;;
8893;SDS011;4483;48.622;9.230;2023-05-29T01:30:56;4.83;;;3.90;;
8893;SDS011;4483;48.622;9.230;2023-05-29T01:33:25;4.53;;;4.03;;
8893;SDS011;4483;48.622;9.230;2023-05-29T01:35:52;4.77;;;4.00;;
8893;SDS011;4483;48.622;9.230;2023-05-29T01:38:19;5.73;;;4.03;;
8893;SDS011;4483;48.622;9.230;2023-05-29T01:40:45;4.20;;;3.80;;
8893;SDS011;4483;48.622;9.230;2023-05-29T01:43:13;6.50;;;4.50;;
8893;SDS011;4483;48.622;9.230;2023-05-29T01:45:41;4.97;;;4.00;;
8893;SDS011;4483;48.622;9.230;2023-05-29T01:48:08;5.57;;;4.10;;
8893;SDS011;4483;48.622;9.230;2023-05-29T01:50:35;5.43;;;4.17;;
8893;SDS011;4483;48.622;9.230;2023-05-29T01:53:03;7.53;;;4.17;;
8893;SDS011;4483;48.622;9.230;2023-05-29T01:55:30;5.40;;;4.10;;
8893;SDS011;4483;48.622;9.230;2023-05-29T01:57:57;4.97;;;3.90;;
8893;SDS011;4483;48.622;9.230;2023-05-29T02:00:23;7.27;;;3.70;;
8893;SDS011;4483;48.622;9.230;2023-05-29T02:02:52;4.67;;;4.17;;
8893;SDS011;4483;48.622;9.230;2023-05-29T02:05:18;7.30;;;4.40;;
8893;SDS011;4483;48.622;9.230;2023-05-29T02:07:46;5.73;;;4.40;;
8893;SDS011;4483;48.622;9.230;2023-05-29T02:10:13;6.43;;;4.27;;
8893;SDS011;4483;48.622;9.230;2023-05-29T02:12:39;4.13;;;3.73;;
8893;SDS011;4483;48.622;9.230;2023-05-29T02:15:07;5.53;;;4.20;;
8893;SDS011;4483;48.622;9.230;2023-05-29T02:17:34;6.83;;;3.90;;
8893;SDS011;4483;48.622;9.230;2023-05-29T02:20:02;4.93;;;4.30;;
8893;SDS011;4483;48.622;9.230;2023-05-29T02:22:29;8.60;;;4.37;;
8893;SDS011;4483;48.622;9.230;2023-05-29T02:24:56;6.53;;;4.23;;
8893;SDS011;4483;48.622;9.230;2023-05-29T02:27:22;6.97;;;4.40;;
8893;SDS011;4483;48.622;9.230;2023-05-29T02:29:49;8.37;;;4.07;;
8893;SDS011;4483;48.622;9.230;2023-05-29T02:32:16;7.03;;;4.17;;
8893;SDS011;4483;48.622;9.230;2023-05-29T02:34:42;6.07;;;4.13;;
8893;SDS011;4483;48.622;9.230;2023-05-29T02:37:10;4.53;;;3.80;;
8893;SDS011;4483;48.622;9.230;2023-05-29T02:39:37;7.43;;;4.63;;
8893;SDS011;4483;48.622;9.230;2023-05-29T02:42:04;4.87;;;4.00;;
8893;SDS011;4483;48.622;9.230;2023-05-29T02:44:31;5.47;;;3.80;;
8893;SDS011;4483;48.622;9.230;2023-05-29T02:46:58;6.43;;;4.17;;
8893;SDS011;4483;48.622;9.230;2023-05-29T02:49:24;7.13;;;4.30;;
8893;SDS011;4483;48.622;9.230;2023-05-29T02:51:51;6.77;;;3.83;;
8893;SDS011;4483;48.622;9.230;2023-05-29T02:54:22;5.33;;;4.27;;
8893;SDS011;4483;48.622;9.230;2023-05-29T02:56:49;5.23;;;3.80;;
8893;SDS011;4483;48.622;9.230;2023-05-29T02:59:16;4.23;;;3.83;;
8893;SDS011;4483;48.622;9.230;2023-05-29T03:01:42;5.77;;;4.33;;
8893;SDS011;4483;48.622;9.230;2023-05-29T03:04:10;6.50;;;4.33;;
8893;SDS011;4483;48.622;9.230;2023-05-29T03:06:37;4.50;;;3.90;;
8893;SDS011;4483;48.622;9.230;2023-05-29T03:09:04;7.60;;;4.50;;
8893;SDS011;4483;48.622;9.230;2023-05-29T03:11:32;5.67;;;4.20;;
8893;SDS011;4483;48.622;9.230;2023-05-29T03:14:00;5.53;;;4.17;;
8893;SDS011;4483;48.622;9.230;2023-05-29T03:16:27;5.83;;;4.40;;
8893;SDS011;4483;48.622;9.230;2023-05-29T03:18:54;9.80;;;4.10;;
8893;SDS011;4483;48.622;9.230;2023-05-29T03:21:21;5.40;;;4.07;;
8893;SDS011;4483;48.622;9.230;2023-05-29T03:23:48;5.43;;;3.90;;
8893;SDS011;4483;48.622;9.230;2023-05-29T03:26:15;4.93;;;3.87;;
8893;SDS011;4483;48.622;9.230;2023-05-29T03:28:43;6.97;;;4.20;;
8893;SDS011;4483;48.622;9.230;2023-05-29T03:31:10;3.90;;;3.50;;
8893;SDS011;4483;48.622;9.230;2023-05-29T03:33:36;4.63;;;3.73;;
8893;SDS011;4483;48.622;9.230;2023-05-29T03:36:03;6.33;;;4.30;;
8893;SDS011;4483;48.622;9.230;2023-05-29T03:38:30;6.37;;;4.17;;
8893;SDS011;4483;48.622;9.230;2023-05-29T03:40:56;3.53;;;3.23;;
8893;SDS011;4483;48.622;9.230;2023-05-29T03:43:23;6.00;;;3.80;;
8893;SDS011;4483;48.622;9.230;2023-05-29T03:45:51;4.83;;;4.03;;
8893;SDS011;4483;48.622;9.230;2023-05-29T03:48:17;6.50;;;3.93;;
8893;SDS011;4483;48.622;9.230;2023-05-29T03:50:45;4.70;;;3.80;;
8893;SDS011;4483;48.622;9.230;2023-05-29T03:53:11;4.60;;;3.90;;
8893;SDS011;4483;48.622;9.230;2023-05-29T03:55:38;4.93;;;3.90;;
8893;SDS011;4483;48.622;9.230;2023-05-29T03:58:05;5.70;;;4.37;;
8893;SDS011;4483;48.622;9.230;2023-05-29T04:00:31;4.47;;;3.83;;
8893;SDS011;4483;48.622;9.230;2023-05-29T04:02:59;8.90;;;4.47;;
8893;SDS011;4483;48.622;9.230;2023-05-29T04:05:26;4.43;;;3.80;;
8893;SDS011;4483;48.622;9.230;2023-05-29T04:07:52;5.43;;;3.97;;
8893;SDS011;4483;48.622;9.230;2023-05-29T04:10:19;6.67;;;3.77;;
8893;SDS011;4483;48.622;9.230;2023-05-29T04:12:45;5.03;;;3.70;;
8893;SDS011;4483;48.622;9.230;2023-05-29T04:15:12;5.03;;;3.67;;
8893;SDS011;4483;48.622;9.230;2023-05-29T04:17:39;7.40;;;4.10;;
8893;SDS011;4483;48.622;9.230;2023-05-29T04:20:07;7.63;;;3.80;;
8893;SDS011;4483;48.622;9.230;2023-05-29T04:22:34;5.83;;;4.00;;
8893;SDS011;4483;48.622;9.230;2023-05-29T04:25:01;6.57;;;3.83;;
8893;SDS011;4483;48.622;9.230;2023-05-29T04:27:29;4.37;;;3.63;;
8893;SDS011;4483;48.622;9.230;2023-05-29T04:29:57;3.90;;;3.57;;
8893;SDS011;4483;48.622;9.230;2023-05-29T04:32:23;4.30;;;3.63;;
8893;SDS011;4483;48.622;9.230;2023-05-29T04:34:51;5.10;;;3.70;;
8893;SDS011;4483;48.622;9.230;2023-05-29T04:37:19;5.03;;;3.60;;
8893;SDS011;4483;48.622;9.230;2023-05-29T04:39:54;5.13;;;3.83;;
8893;SDS011;4483;48.622;9.230;2023-05-29T04:42:20;6.27;;;3.83;;
8893;SDS011;4483;48.622;9.230;2023-05-29T04:44:47;4.40;;;3.93;;
8893;SDS011;4483;48.622;9.230;2023-05-29T04:47:14;6.53;;;3.80;;
8893;SDS011;4483;48.622;9.230;2023-05-29T04:49:41;4.33;;;3.57;;
8893;SDS011;4483;48.622;9.230;2023-05-29T04:52:13;4.27;;;3.73;;
8893;SDS011;4483;48.622;9.230;2023-05-29T04:54:41;5.40;;;3.90;;
8893;SDS011;4483;48.622;9.230;2023-05-29T04:57:08;4.73;;;4.17;;
8893;SDS011;4483;48.622;9.230;2023-05-29T04:59:35;5.60;;;3.63;;
8893;SDS011;4483;48.622;9.230;2023-05-29T05:02:02;4.97;;;3.93;;
8893;SDS011;4483;48.622;9.230;2023-05-29T05:04:28;4.40;;;3.60;;
8893;SDS011;4483;48.622;9.230;2023-05-29T05:06:55;5.23;;;3.97;;
8893;SDS011;4483;48.622;9.230;2023-05-29T05:09:22;4.23;;;3.40;;
8893;SDS011;4483;48.622;9.230;2023-05-29T05:11:50;6.87;;;3.90;;
8893;SDS011;4483;48.622;9.230;2023-05-29T05:14:16;8.23;;;4.03;;
8893;SDS011;4483;48.622;9.230;2023-05-29T05:16:43;6.03;;;3.57;;
8893;SDS011;4483;48.622;9.230;2023-05-29T05:19:09;5.83;;;4.03;;
8893;SDS011;4483;48.622;9.230;2023-05-29T05:21:36;4.33;;;3.90;;
8893;SDS011;4483;48.622;9.230;2023-05-29T05:24:03;5.77;;;3.90;;
8893;SDS011;4483;48.622;9.230;2023-05-29T05:26:30;6.57;;;3.73;;
8893;SDS011;4483;48.622;9.230;2023-05-29T05:28:57;4.50;;;3.50;;
8893;SDS011;4483;48.622;9.230;2023-05-29T05:31:24;4.53;;;3.57;;
8893;SDS011;4483;48.622;9.230;2023-05-29T05:33:51;5.73;;;3.90;;
8893;SDS011;4483;48.622;9.230;2023-05-29T05:36:18;6.63;;;4.20;;
8893;SDS011;4483;48.622;9.230;2023-05-29T05:38:45;4.40;;;3.60;;
8893;SDS011;4483;48.622;9.230;2023-05-29T05:41:11;4.67;;;3.23;;
8893;SDS011;4483;48.622;9.230;2023-05-29T05:43:38;7.20;;;3.77;;
8893;SDS011;4483;48.622;9.230;2023-05-29T05:46:06;4.53;;;3.73;;
8893;SDS011;4483;48.622;9.230;2023-05-29T05:48:33;4.80;;;4.00;;
8893;SDS011;4483;48.622;9.230;2023-05-29T05:50:59;5.43;;;3.80;;
8893;SDS011;4483;48.622;9.230;2023-05-29T05:53:26;5.10;;;3.63;;
8893;SDS011;4483;48.622;9.230;2023-05-29T05:55:52;4.37;;;3.70;;
8893;SDS011;4483;48.622;9.230;2023-05-29T05:58:19;5.87;;;4.00;;
8893;SDS011;4483;48.622;9.230;2023-05-29T06:00:46;4.67;;;3.83;;
8893;SDS011;4483;48.622;9.230;2023-05-29T06:03:14;6.97;;;3.80;;
8893;SDS011;4483;48.622;9.230;2023-05-29T06:05:40;7.20;;;3.70;;
8893;SDS011;4483;48.622;9.230;2023-05-29T06:08:07;4.27;;;3.83;;
8893;SDS011;4483;48.622;9.230;2023-05-29T06:10:34;4.30;;;3.50;;
8893;SDS011;4483;48.622;9.230;2023-05-29T06:13:01;4.53;;;3.93;;
8893;SDS011;4483;48.622;9.230;2023-05-29T06:15:27;5.00;;;3.37;;
8893;SDS011;4483;48.622;9.230;2023-05-29T06:17:54;4.23;;;3.67;;
8893;SDS011;4483;48.622;9.230;2023-05-29T06:20:22;4.87;;;3.87;;
8893;SDS011;4483;48.622;9.230;2023-05-29T06:22:48;5.90;;;3.17;;
8893;SDS011;4483;48.622;9.230;2023-05-29T06:25:15;5.10;;;3.90;;
8893;SDS011;4483;48.622;9.230;2023-05-29T06:27:43;8.17;;;3.80;;
8893;SDS011;4483;48.622;9.230;2023-05-29T06:30:10;5.33;;;4.40;;
8893;SDS011;4483;48.622;9.230;2023-05-29T06:32:37;4.40;;;3.60;;
8893;SDS011;4483;48.622;9.230;2023-05-29T06:35:04;6.80;;;3.73;;
8893;SDS011;4483;48.622;9.230;2023-05-29T06:37:33;7.25;;;3.70;;
8893;SDS011;4483;48.622;9.230;2023-05-29T06:39:59;5.87;;;3.63;;
8893;SDS011;4483;48.622;9.230;2023-05-29T06:42:26;6.35;;;3.95;;
8893;SDS011;4483;48.622;9.230;2023-05-29T06:44:52;6.13;;;4.30;;
8893;SDS011;4483;48.622;9.230;2023-05-29T06:47:19;5.65;;;4.13;;
8893;SDS011;4483;48.622;9.230;2023-05-29T06:49:46;5.90;;;4.10;;
8893;SDS011;4483;48.622;9.230;2023-05-29T06:52:12;9.25;;;4.60;;
8893;SDS011;4483;48.622;9.230;2023-05-29T06:54:40;4.70;;;4.10;;
8893;SDS011;4483;48.622;9.230;2023-05-29T06:57:07;5.85;;;5.20;;
8893;SDS011;4483;48.622;9.230;2023-05-29T06:59:33;9.15;;;4.65;;
8893;SDS011;4483;48.622;9.230;2023-05-29T07:02:00;6.05;;;4.47;;
8893;SDS011;4483;48.622;9.230;2023-05-29T07:04:26;7.55;;;4.78;;
8893;SDS011;4483;48.622;9.230;2023-05-29T07:06:53;7.50;;;4.65;;
8893;SDS011;4483;48.622;9.230;2023-05-29T07:09:20;5.93;;;4.47;;
8893;SDS011;4483;48.622;9.230;2023-05-29T07:11:48;6.85;;;4.32;;
8893;SDS011;4483;48.622;9.230;2023-05-29T07:14:14;7.38;;;4.53;;
8893;SDS011;4483;48.622;9.230;2023-05-29T07:16:41;8.13;;;4.50;;
8893;SDS011;4483;48.622;9.230;2023-05-29T07:19:07;5.28;;;4.20;;
8893;SDS011;4483;48.622;9.230;2023-05-29T07:21:36;8.02;;;4.75;;
8893;SDS011;4483;48.622;9.230;2023-05-29T07:24:03;6.22;;;4.28;;
8893;SDS011;4483;48.622;9.230;2023-05-29T07:26:30;5.38;;;4.13;;
8893;SDS011;4483;48.622;9.230;2023-05-29T07:28:58;5.35;;;3.65;;
8893;SDS011;4483;48.622;9.230;2023-05-29T07:31:24;6.95;;;4.18;;
8893;SDS011;4483;48.622;9.230;2023-05-29T07:33:51;4.35;;;3.90;;
8893;SDS011;4483;48.622;9.230;2023-05-29T07:36:18;4.15;;;3.75;;
8893;SDS011;4483;48.622;9.230;2023-05-29T07:38:44;4.93;;;4.45;;
8893;SDS011;4483;48.622;9.230;2023-05-29T07:41:11;7.30;;;4.03;;
8893;SDS011;4483;48.622;9.230;2023-05-29T07:43:37;4.43;;;3.95;;
8893;SDS011;4483;48.622;9.230;2023-05-29T07:46:06;4.13;;;3.72;;
8893;SDS011;4483;48.622;9.230;2023-05-29T07:48:32;5.93;;;4.15;;
8893;SDS011;4483;48.622;9.230;2023-05-29T07:50:59;4.78;;;3.47;;
8893;SDS011;4483;48.622;9.230;2023-05-29T07:53:26;6.72;;;4.13;;
8893;SDS011;4483;48.622;9.230;2023-05-29T07:55:53;5.68;;;4.07;;
8893;SDS011;4483;48.622;9.230;2023-05-29T07:58:19;9.18;;;4.38;;
8893;SDS011;4483;48.622;9.230;2023-05-29T08:00:46;6.10;;;3.53;;
8893;SDS011;4483;48.622;9.230;2023-05-29T08:03:15;4.65;;;3.45;;
8893;SDS011;4483;48.622;9.230;2023-05-29T08:05:42;4.97;;;3.95;;
8893;SDS011;4483;48.622;9.230;2023-05-29T08:08:09;4.22;;;3.83;;
8893;SDS011;4483;48.622;9.230;2023-05-29T08:10:37;5.90;;;3.88;;
8893;SDS011;4483;48.622;9.230;2023-05-29T08:13:04;5.15;;;3.67;;
8893;SDS011;4483;48.622;9.230;2023-05-29T08:15:31;4.90;;;4.05;;
8893;SDS011;4483;48.622;9.230;2023-05-29T08:17:57;4.40;;;4.00;;
8893;SDS011;4483;48.622;9.230;2023-05-29T08:20:25;5.20;;;4.10;;
8893;SDS011;4483;48.622;9.230;2023-05-29T08:22:52;4.43;;;4.00;;
8893;SDS011;4483;48.622;9.230;2023-05-29T08:25:18;5.20;;;4.25;;
8893;SDS011;4483;48.622;9.230;2023-05-29T08:27:45;6.72;;;4.25;;
8893;SDS011;4483;48.622;9.230;2023-05-29T08:30:13;3.88;;;3.58;;
8893;SDS011;4483;48.622;9.230;2023-05-29T08:32:41;8.60;;;4.20;;
8893;SDS011;4483;48.622;9.230;2023-05-29T08:35:08;4.03;;;3.60;;
8893;SDS011;4483;48.622;9.230;2023-05-29T08:37:36;4.20;;;3.80;;
8893;SDS011;4483;48.622;9.230;2023-05-29T08:40:03;6.30;;;4.22;;
8893;SDS011;4483;48.622;9.230;2023-05-29T08:42:33;4.60;;;3.88;;
8893;SDS011;4483;48.622;9.230;2023-05-29T08:45:03;5.00;;;3.80;;
8893;SDS011;4483;48.622;9.230;2023-05-29T08:47:31;4.15;;;3.75;;
8893;SDS011;4483;48.622;9.230;2023-05-29T08:50:00;4.78;;;4.13;;
8893;SDS011;4483;48.622;9.230;2023-05-29T08:52:27;5.22;;;3.83;;
8893;SDS011;4483;48.622;9.230;2023-05-29T08:55:01;5.55;;;3.90;;
8893;SDS011;4483;48.622;9.230;2023-05-29T08:57:29;4.30;;;4.00;;
8893;SDS011;4483;48.622;9.230;2023-05-29T08:59:56;5.78;;;3.80;;
8893;SDS011;4483;48.622;9.230;2023-05-29T09:02:23;5.82;;;4.28;;
8893;SDS011;4483;48.622;9.230;2023-05-29T09:04:49;4.72;;;3.67;;
8893;SDS011;4483;48.622;9.230;2023-05-29T09:07:18;4.72;;;4.03;;
8893;SDS011;4483;48.622;9.230;2023-05-29T09:09:45;5.93;;;4.18;;
8893;SDS011;4483;48.622;9.230;2023-05-29T09:12:14;6.32;;;3.97;;
8893;SDS011;4483;48.622;9.230;2023-05-29T09:14:41;4.82;;;4.15;;
8893;SDS011;4483;48.622;9.230;2023-05-29T09:17:09;4.90;;;4.10;;
8893;SDS011;4483;48.622;9.230;2023-05-29T09:19:37;5.60;;;4.00;;
8893;SDS011;4483;48.622;9.230;2023-05-29T09:22:06;5.13;;;3.85;;
8893;SDS011;4483;48.622;9.230;2023-05-29T09:24:34;4.32;;;3.90;;
8893;SDS011;4483;48.622;9.230;2023-05-29T09:27:02;4.88;;;3.80;;
8893;SDS011;4483;48.622;9.230;2023-05-29T09:29:31;3.92;;;3.63;;
8893;SDS011;4483;48.622;9.230;2023-05-29T09:31:58;6.13;;;3.78;;
8893;SDS011;4483;48.622;9.230;2023-05-29T09:34:25;5.75;;;4.25;;
8893;SDS011;4483;48.622;9.230;2023-05-29T09:36:52;6.55;;;4.07;;
8893;SDS011;4483;48.622;9.230;2023-05-29T09:39:21;5.35;;;3.65;;
8893;SDS011;4483;48.622;9.230;2023-05-29T09:41:47;4.50;;;4.10;;
8893;SDS011;4483;48.622;9.230;2023-05-29T09:44:14;5.00;;;4.03;;
8893;SDS011;4483;48.622;9.230;2023-05-29T09:46:43;6.63;;;3.92;;
8893;SDS011;4483;48.622;9.230;2023-05-29T09:49:11;4.43;;;4.03;;
8893;SDS011;4483;48.622;9.230;2023-05-29T09:51:40;4.22;;;3.83;;
8893;SDS011;4483;48.622;9.230;2023-05-29T09:54:12;6.15;;;3.90;;
8893;SDS011;4483;48.622;9.230;2023-05-29T09:56:40;4.53;;;3.88;;
8893;SDS011;4483;48.622;9.230;2023-05-29T09:59:08;7.70;;;4.20;;
8893;SDS011;4483;48.622;9.230;2023-05-29T10:01:37;6.22;;;4.15;;
8893;SDS011;4483;48.622;9.230;2023-05-29T10:04:08;5.78;;;4.60;;
8893;SDS011;4483;48.622;9.230;2023-05-29T10:06:35;5.03;;;4.50;;
8893;SDS011;4483;48.622;9.230;2023-05-29T10:09:03;3.90;;;3.60;;
8893;SDS011;4483;48.622;9.230;2023-05-29T10:11:33;4.72;;;3.92;;
8893;SDS011;4483;48.622;9.230;2023-05-29T10:14:01;3.70;;;3.40;;
8893;SDS011;4483;48.622;9.230;2023-05-29T10:16:28;4.40;;;3.10;;
8893;SDS011;4483;48.622;9.230;2023-05-29T10:19:00;5.88;;;4.05;;
8893;SDS011;4483;48.622;9.230;2023-05-29T10:21:33;4.85;;;3.55;;
8893;SDS011;4483;48.622;9.230;2023-05-29T10:24:04;4.78;;;3.20;;
8893;SDS011;4483;48.622;9.230;2023-05-29T10:26:34;4.00;;;3.38;;
8893;SDS011;4483;48.622;9.230;2023-05-29T10:29:03;4.15;;;3.30;;
8893;SDS011;4483;48.622;9.230;2023-05-29T10:31:38;4.72;;;3.55;;
8893;SDS011;4483;48.622;9.230;2023-05-29T10:34:18;10.00;;;4.13;;
8893;SDS011;4483;48.622;9.230;2023-05-29T10:37:01;3.17;;;2.83;;
8893;SDS011;4483;48.622;9.230;2023-05-29T10:39:32;3.85;;;3.28;;
8893;SDS011;4483;48.622;9.230;2023-05-29T10:41:59;3.55;;;3.25;;
8893;SDS011;4483;48.622;9.230;2023-05-29T10:44:39;3.30;;;2.90;;
8893;SDS011;4483;48.622;9.230;2023-05-29T10:47:08;3.95;;;3.50;;
8893;SDS011;4483;48.622;9.230;2023-05-29T10:49:37;4.15;;;3.00;;
8893;SDS011;4483;48.622;9.230;2023-05-29T10:52:06;6.00;;;3.80;;
8893;SDS011;4483;48.622;9.230;2023-05-29T10:54:40;5.10;;;3.83;;
8893;SDS011;4483;48.622;9.230;2023-05-29T10:57:16;4.15;;;3.13;;
8893;SDS011;4483;48.622;9.230;2023-05-29T10:59:44;4.95;;;3.28;;
8893;SDS011;4483;48.622;9.230;2023-05-29T11:02:11;5.05;;;3.30;;
8893;SDS011;4483;48.622;9.230;2023-05-29T11:04:43;4.35;;;3.40;;
8893;SDS011;4483;48.622;9.230;2023-05-29T11:10:10;5.25;;;3.08;;
8893;SDS011;4483;48.622;9.230;2023-05-29T11:15:23;3.60;;;3.08;;
8893;SDS011;4483;48.622;9.230;2023-05-29T11:17:50;7.45;;;2.92;;
8893;SDS011;4483;48.622;9.230;2023-05-29T11:20:27;4.43;;;3.47;;
8893;SDS011;4483;48.622;9.230;2023-05-29T11:23:03;5.20;;;3.50;;
8893;SDS011;4483;48.622;9.230;2023-05-29T11:25:33;4.47;;;2.92;;
8893;SDS011;4483;48.622;9.230;2023-05-29T11:28:01;3.63;;;3.00;;
8893;SDS011;4483;48.622;9.230;2023-05-29T11:30:40;6.60;;;3.47;;
8893;SDS011;4483;48.622;9.230;2023-05-29T11:33:07;3.60;;;3.30;;
8893;SDS011;4483;48.622;9.230;2023-05-29T11:35:38;3.70;;;2.92;;
8893;SDS011;4483;48.622;9.230;2023-05-29T11:38:07;4.88;;;3.50;;
8893;SDS011;4483;48.622;9.230;2023-05-29T11:40:35;3.42;;;3.00;;
8893;SDS011;4483;48.622;9.230;2023-05-29T11:43:02;4.57;;;2.97;;
8893;SDS011;4483;48.622;9.230;2023-05-29T11:45:31;3.63;;;2.90;;
8893;SDS011;4483;48.622;9.230;2023-05-29T11:48:00;3.13;;;2.83;;
8893;SDS011;4483;48.622;9.230;2023-05-29T11:50:29;4.05;;;3.22;;
8893;SDS011;4483;48.622;9.230;2023-05-29T11:52:56;5.32;;;3.25;;
8893;SDS011;4483;48.622;9.230;2023-05-29T11:55:25;6.15;;;3.25;;
8893;SDS011;4483;48.622;9.230;2023-05-29T11:57:55;4.18;;;3.00;;
8893;SDS011;4483;48.622;9.230;2023-05-29T12:00:23;3.50;;;2.95;;
8893;SDS011;4483;48.622;9.230;2023-05-29T12:02:50;5.00;;;3.05;;
8893;SDS011;4483;48.622;9.230;2023-05-29T12:05:17;6.72;;;3.10;;
8893;SDS011;4483;48.622;9.230;2023-05-29T12:07:47;4.63;;;3.15;;
8893;SDS011;4483;48.622;9.230;2023-05-29T12:10:16;4.57;;;3.00;;
8893;SDS011;4483;48.622;9.230;2023-05-29T12:12:48;4.95;;;2.75;;
8893;SDS011;4483;48.622;9.230;2023-05-29T12:15:17;9.02;;;2.78;;
8893;SDS011;4483;48.622;9.230;2023-05-29T12:17:44;4.72;;;2.88;;
8893;SDS011;4483;48.622;9.230;2023-05-29T12:20:11;4.53;;;3.03;;
8893;SDS011;4483;48.622;9.230;2023-05-29T12:22:39;4.68;;;3.10;;
8893;SDS011;4483;48.622;9.230;2023-05-29T12:25:09;4.25;;;3.08;;
8893;SDS011;4483;48.622;9.230;2023-05-29T12:27:37;4.25;;;2.72;;
8893;SDS011;4483;48.622;9.230;2023-05-29T12:30:09;3.63;;;2.88;;
8893;SDS011;4483;48.622;9.230;2023-05-29T12:32:40;5.00;;;3.33;;
8893;SDS011;4483;48.622;9.230;2023-05-29T12:35:13;4.22;;;2.70;;
8893;SDS011;4483;48.622;9.230;2023-05-29T12:37:43;3.15;;;2.90;;
8893;SDS011;4483;48.622;9.230;2023-05-29T12:40:11;5.28;;;2.67;;
8893;SDS011;4483;48.622;9.230;2023-05-29T12:42:40;3.20;;;2.90;;
8893;SDS011;4483;48.622;9.230;2023-05-29T12:45:07;6.78;;;3.35;;
8893;SDS011;4483;48.622;9.230;2023-05-29T12:47:36;4.00;;;2.70;;
8893;SDS011;4483;48.622;9.230;2023-05-29T12:50:18;3.50;;;3.08;;
8893;SDS011;4483;48.622;9.230;2023-05-29T12:52:45;3.70;;;2.97;;
8893;SDS011;4483;48.622;9.230;2023-05-29T12:55:12;2.67;;;2.50;;
8893;SDS011;4483;48.622;9.230;2023-05-29T12:57:39;3.15;;;2.83;;
8893;SDS011;4483;48.622;9.230;2023-05-29T13:00:06;3.10;;;2.80;;
8893;SDS011;4483;48.622;9.230;2023-05-29T13:02:36;2.85;;;2.65;;
8893;SDS011;4483;48.622;9.230;2023-05-29T13:05:03;3.97;;;2.90;;
8893;SDS011;4483;48.622;9.230;2023-05-29T13:07:31;2.85;;;2.60;;
8893;SDS011;4483;48.622;9.230;2023-05-29T13:09:58;4.03;;;2.90;;
8893;SDS011;4483;48.622;9.230;2023-05-29T13:12:25;3.35;;;2.70;;
8893;SDS011;4483;48.622;9.230;2023-05-29T13:14:52;5.30;;;2.95;;
8893;SDS011;4483;48.622;9.230;2023-05-29T13:17:20;3.38;;;2.90;;
8893;SDS011;4483;48.622;9.230;2023-05-29T13:19:48;3.50;;;2.97;;
8893;SDS011;4483;48.622;9.230;2023-05-29T13:22:15;3.20;;;2.90;;
8893;SDS011;4483;48.622;9.230;2023-05-29T13:24:42;3.08;;;2.88;;
8893;SDS011;4483;48.622;9.230;2023-05-29T13:27:08;2.95;;;2.72;;
8893;SDS011;4483;48.622;9.230;2023-05-29T13:29:35;3.97;;;2.88;;
8893;SDS011;4483;48.622;9.230;2023-05-29T13:32:02;3.08;;;2.88;;
8893;SDS011;4483;48.622;9.230;2023-05-29T13:34:28;3.60;;;2.85;;
8893;SDS011;4483;48.622;9.230;2023-05-29T13:36:57;3.90;;;3.00;;
8893;SDS011;4483;48.622;9.230;2023-05-29T13:39:25;3.30;;;3.00;;
8893;SDS011;4483;48.622;9.230;2023-05-29T13:41:52;3.80;;;3.10;;
8893;SDS011;4483;48.622;9.230;2023-05-29T13:44:18;5.03;;;3.10;;
8893;SDS011;4483;48.622;9.230;2023-05-29T13:46:45;3.38;;;3.08;;
8893;SDS011;4483;48.622;9.230;2023-05-29T13:49:11;3.72;;;2.78;;
8893;SDS011;4483;48.622;9.230;2023-05-29T13:51:38;3.85;;;3.00;;
8893;SDS011;4483;48.622;9.230;2023-05-29T13:54:06;4.05;;;3.47;;
8893;SDS011;4483;48.622;9.230;2023-05-29T13:56:33;8.73;;;2.90;;
8893;SDS011;4483;48.622;9.230;2023-05-29T13:58:59;5.13;;;3.30;;
8893;SDS011;4483;48.622;9.230;2023-05-29T14:01:29;4.03;;;3.10;;
8893;SDS011;4483;48.622;9.230;2023-05-29T14:03:57;5.00;;;3.13;;
8893;SDS011;4483;48.622;9.230;2023-05-29T14:06:24;7.55;;;2.92;;
8893;SDS011;4483;48.622;9.230;2023-05-29T14:08:50;4.82;;;3.20;;
8893;SDS011;4483;48.622;9.230;2023-05-29T14:11:18;5.55;;;3.13;;
8893;SDS011;4483;48.622;9.230;2023-05-29T14:13:45;3.38;;;2.80;;
8893;SDS011;4483;48.622;9.230;2023-05-29T14:16:11;3.28;;;3.00;;
8893;SDS011;4483;48.622;9.230;2023-05-29T14:18:40;6.90;;;2.88;;
8893;SDS011;4483;48.622;9.230;2023-05-29T14:21:07;4.05;;;3.00;;
8893;SDS011;4483;48.622;9.230;2023-05-29T14:23:33;3.53;;;3.10;;
8893;SDS011;4483;48.622;9.230;2023-05-29T14:26:00;4.90;;;3.22;;
8893;SDS011;4483;48.622;9.230;2023-05-29T14:28:28;3.15;;;2.90;;
8893;SDS011;4483;48.622;9.230;2023-05-29T14:30:55;5.88;;;3.50;;
8893;SDS011;4483;48.622;9.230;2023-05-29T14:33:21;4.00;;;3.63;;
8893;SDS011;4483;48.622;9.230;2023-05-29T14:35:49;4.75;;;3.20;;
8893;SDS011;4483;48.622;9.230;2023-05-29T14:38:17;3.50;;;3.20;;
8893;SDS011;4483;48.622;9.230;2023-05-29T14:40:44;3.53;;;3.05;;
8893;SDS011;4483;48.622;9.230;2023-05-29T14:43:10;7.40;;;3.33;;
8893;SDS011;4483;48.622;9.230;2023-05-29T14:45:38;3.35;;;3.13;;
8893;SDS011;4483;48.622;9.230;2023-05-29T14:48:05;5.35;;;3.05;;
8893;SDS011;4483;48.622;9.230;2023-05-29T14:50:31;3.10;;;2.90;;
8893;SDS011;4483;48.622;9.230;2023-05-29T14:52:58;3.72;;;3.13;;
8893;SDS011;4483;48.622;9.230;2023-05-29T14:55:24;3.55;;;3.22;;
8893;SDS011;4483;48.622;9.230;2023-05-29T14:57:51;3.55;;;3.25;;
8893;SDS011;4483;48.622;9.230;2023-05-29T15:00:18;5.28;;;3.85;;
8893;SDS011;4483;48.622;9.230;2023-05-29T15:02:46;4.38;;;3.20;;
8893;SDS011;4483;48.622;9.230;2023-05-29T15:05:13;3.30;;;3.00;;
8893;SDS011;4483;48.622;9.230;2023-05-29T15:07:39;4.53;;;3.53;;
8893;SDS011;4483;48.622;9.230;2023-05-29T15:10:06;4.63;;;3.35;;
8893;SDS011;4483;48.622;9.230;2023-05-29T15:12:33;6.72;;;2.90;;
8893;SDS011;4483;48.622;9.230;2023-05-29T15:15:00;4.32;;;3.50;;
8893;SDS011;4483;48.622;9.230;2023-05-29T15:17:27;3.97;;;3.10;;
8893;SDS011;4483;48.622;9.230;2023-05-29T15:19:55;6.85;;;3.28;;
8893;SDS011;4483;48.622;9.230;2023-05-29T15:22:22;6.88;;;3.20;;
8893;SDS011;4483;48.622;9.230;2023-05-29T15:24:49;3.75;;;2.92;;